Time;durP1;ratioP1;P1;durP2;ratioP2;P2;SDS_P1;SDS_P2;PMS_P1;PMS_P2;Temp;Humidity;BMP_temperature;BMP_pressure;BME280_temperature;BME280_humidity;BME280_pressure;Samples;Min_cycle;Max_cycle;Signal;HPM_P1;HPM_P2
2023/04/23 00:01:58;;;;;;;26.00;11.95;;;;;;;10.14;49.63;99209.13;5070163;28;20036;-58
2023/04/23 00:04:25;;;;;;;30.15;12.02;;;;;;;10.09;50.01;99203.28;5069269;28;20047;-60
2023/04/23 00:06:51;;;;;;;29.58;11.88;;;;;;;10.11;50.16;99217.03;5088029;28;20067;-57
2023/04/23 00:09:17;;;;;;;29.85;11.50;;;;;;;10.08;49.97;99211.97;5069715;28;20046;-58
2023/04/23 00:11:43;;;;;;;34.20;12.63;;;;;;;10.02;49.84;99213.06;5087029;28;20032;-58
2023/04/23 00:14:10;;;;;;;33.88;11.68;;;;;;;10.00;50.23;99222.66;5088328;28;20051;-58
2023/04/23 00:16:38;;;;;;;30.10;11.38;;;;;;;9.84;50.38;99190.41;5087202;28;20066;-58
2023/04/23 00:19:04;;;;;;;30.58;12.18;;;;;;;9.98;49.88;99215.84;5067668;28;20086;-57
2023/04/23 00:21:30;;;;;;;31.83;11.80;;;;;;;9.98;50.66;99221.03;5070104;28;20125;-60
2023/04/23 00:23:56;;;;;;;28.77;11.80;;;;;;;9.97;50.54;99222.78;5088494;28;20046;-58
2023/04/23 00:26:22;;;;;;;30.13;11.85;;;;;;;9.93;50.36;99213.44;5069257;28;20515;-58
2023/04/23 00:28:48;;;;;;;34.78;13.82;;;;;;;9.77;50.62;99197.59;5087345;28;20040;-58
2023/04/23 00:31:14;;;;;;;32.95;13.10;;;;;;;9.91;50.31;99222.16;5049622;28;20492;-56
2023/04/23 00:33:40;;;;;;;26.38;11.95;;;;;;;9.90;50.68;99218.72;5068123;28;20063;-58
2023/04/23 00:36:07;;;;;;;33.42;12.38;;;;;;;9.90;50.60;99228.25;5103483;28;20054;-57
2023/04/23 00:38:33;;;;;;;28.08;12.93;;;;;;;9.65;50.74;99197.22;5087187;28;20036;-59
2023/04/23 00:40:59;;;;;;;29.48;11.73;;;;;;;9.72;51.02;99233.28;5066594;28;20104;-60
2023/04/23 00:43:25;;;;;;;28.27;11.68;;;;;;;9.71;51.12;99231.56;5053363;28;20043;-58
2023/04/23 00:45:51;;;;;;;33.10;12.13;;;;;;;9.64;51.19;99231.84;5087474;28;20070;-58
2023/04/23 00:48:17;;;;;;;29.88;10.80;;;;;;;9.63;51.43;99243.97;5104036;28;20048;-58
2023/04/23 00:50:43;;;;;;;22.10;11.68;;;;;;;9.59;51.39;99229.44;5064842;28;20067;-58
2023/04/23 00:53:09;;;;;;;28.98;11.00;;;;;;;9.60;51.45;99241.50;5085491;28;20491;-59
2023/04/23 00:55:36;;;;;;;26.63;11.70;;;;;;;9.57;51.32;99233.84;5069010;28;20040;-57
2023/04/23 00:58:02;;;;;;;27.27;10.75;;;;;;;9.64;51.19;99243.09;5087431;28;20263;-60
2023/04/23 01:00:28;;;;;;;28.80;11.15;;;;;;;9.59;51.17;99233.78;5087378;28;20089;-59
2023/04/23 01:02:56;;;;;;;24.85;11.00;;;;;;;9.58;51.16;99238.13;5084482;28;20464;-58
2023/04/23 01:05:23;;;;;;;29.20;11.50;;;;;;;9.43;51.19;99215.34;5085942;28;20060;-63
2023/04/23 01:07:49;;;;;;;28.50;11.20;;;;;;;9.55;51.67;99240.84;5069882;28;20055;-58
2023/04/23 01:10:16;;;;;;;25.42;11.52;;;;;;;9.52;51.77;99240.13;5049482;28;20128;-56
2023/04/23 01:12:42;;;;;;;25.80;10.98;;;;;;;9.49;51.94;99235.03;5049527;28;20048;-56
2023/04/23 01:15:09;;;;;;;24.48;11.23;;;;;;;9.53;51.49;99245.22;5068489;28;20100;-59
2023/04/23 01:17:35;;;;;;;24.52;10.20;;;;;;;9.53;51.72;99241.78;5053141;28;20047;-56
2023/04/23 01:20:02;;;;;;;27.45;10.75;;;;;;;9.49;51.95;99240.22;5086994;28;20040;-57
2023/04/23 01:22:30;;;;;;;23.33;11.10;;;;;;;9.50;51.95;99244.50;5103046;28;20511;-58
2023/04/23 01:24:56;;;;;;;30.77;11.70;;;;;;;9.38;51.76;99219.00;5068791;28;20040;-59
2023/04/23 01:27:23;;;;;;;25.20;12.20;;;;;;;9.50;51.88;99250.53;5036189;28;20047;-58
2023/04/23 01:29:49;;;;;;;32.30;12.77;;;;;;;9.50;51.53;99242.75;5048031;28;20141;-57
2023/04/23 01:32:17;;;;;;;30.20;13.48;;;;;;;9.50;51.33;99250.53;5071931;28;20036;-55
2023/04/23 01:34:46;;;;;;;30.33;13.60;;;;;;;9.52;51.50;99251.34;5071619;28;20064;-57
2023/04/23 01:37:12;;;;;;;31.33;13.87;;;;;;;9.41;51.55;99222.34;5092989;28;20047;-58
2023/04/23 01:39:38;;;;;;;29.60;12.98;;;;;;;9.58;51.58;99252.84;5060337;28;20088;-57
2023/04/23 01:42:06;;;;;;;22.52;9.90;;;;;;;9.60;51.22;99251.03;5091796;28;20411;-57
2023/04/23 01:44:32;;;;;;;29.52;10.57;;;;;;;9.60;51.21;99245.84;5101283;28;20520;-57
2023/04/23 01:46:58;;;;;;;28.60;11.15;;;;;;;9.55;51.39;99229.63;5068881;28;20051;-57
2023/04/23 01:49:24;;;;;;;22.25;11.50;;;;;;;9.83;50.81;99255.38;5069971;28;20036;-57
2023/04/23 01:51:49;;;;;;;25.17;10.85;;;;;;;9.80;50.84;99240.75;5069740;28;20546;-58
2023/04/23 01:54:15;;;;;;;23.83;10.85;;;;;;;10.00;50.34;99259.00;5070239;28;20032;-57
2023/04/23 01:56:41;;;;;;;25.20;9.88;;;;;;;10.07;50.82;99254.44;5071323;28;20531;-57
2023/04/23 01:59:07;;;;;;;25.98;10.80;;;;;;;9.86;50.33;99209.38;5044895;28;20109;-57
2023/04/23 02:01:41;;;;;;;28.85;11.13;;;;;;;9.96;50.27;99220.22;5100082;28;20480;-59
2023/04/23 02:04:08;;;;;;;24.80;10.88;;;;;;;10.26;50.02;99257.19;5069901;28;20032;-57
2023/04/23 02:06:34;;;;;;;21.10;9.93;;;;;;;10.16;49.87;99230.72;5070614;28;20431;-59
2023/04/23 02:09:00;;;;;;;26.95;11.60;;;;;;;10.35;50.55;99259.41;5063823;28;20060;-57
2023/04/23 02:11:26;;;;;;;25.55;11.23;;;;;;;10.41;50.39;99262.63;5080916;28;20048;-59
2023/04/23 02:13:52;;;;;;;25.42;11.85;;;;;;;10.49;50.01;99267.50;5069163;28;20040;-56
2023/04/23 02:16:18;;;;;;;23.75;10.70;;;;;;;10.54;49.69;99271.59;5069497;28;20139;-57
2023/04/23 02:18:44;;;;;;;29.90;11.80;;;;;;;10.62;49.82;99264.31;5069226;28;20036;-58
2023/04/23 02:21:11;;;;;;;30.42;11.57;;;;;;;10.53;49.14;99246.50;5067187;28;20040;-55
2023/04/23 02:23:38;;;;;;;33.03;12.57;;;;;;;10.64;49.33;99261.66;5056047;28;20048;-57
2023/04/23 02:26:04;;;;;;;24.80;11.75;;;;;;;10.65;49.25;99271.16;5086373;28;20089;-55
2023/04/23 02:28:31;;;;;;;28.15;11.57;;;;;;;10.59;48.90;99263.59;5086245;28;20544;-56
2023/04/23 02:30:57;;;;;;;21.60;10.25;;;;;;;10.70;48.45;99278.75;5074111;28;20033;-57
2023/04/23 02:33:24;;;;;;;21.85;10.15;;;;;;;10.69;48.09;99271.88;5053021;28;20039;-55
2023/04/23 02:35:50;;;;;;;17.95;9.25;;;;;;;10.75;48.00;99269.88;5060514;28;20045;-57
2023/04/23 02:38:16;;;;;;;22.25;10.88;;;;;;;10.77;47.20;99254.22;5050159;28;20521;-55
2023/04/23 02:40:42;;;;;;;24.90;11.88;;;;;;;10.74;47.65;99229.16;5059439;28;20047;-58
2023/04/23 02:43:08;;;;;;;23.52;10.95;;;;;;;10.95;47.48;99254.25;5058617;28;20048;-53
2023/04/23 02:45:35;;;;;;;28.23;10.82;;;;;;;11.17;47.18;99277.59;5081209;28;20080;-57
2023/04/23 02:48:01;;;;;;;28.10;11.70;;;;;;;11.23;47.14;99281.69;5065678;28;20428;-58
2023/04/23 02:50:27;;;;;;;21.77;9.95;;;;;;;11.24;47.10;99296.41;5050625;28;20051;-58
2023/04/23 02:52:53;;;;;;;25.00;9.48;;;;;;;11.11;47.40;99277.03;5086156;28;20040;-54
2023/04/23 02:55:19;;;;;;;24.50;10.35;;;;;;;11.20;47.17;99289.66;5067256;28;20044;-57
2023/04/23 02:57:46;;;;;;;13.45;8.68;;;;;;;11.19;47.94;99295.75;5046925;28;20512;-59
2023/04/23 03:00:14;;;;;;;19.00;8.38;;;;;;;10.97;47.17;99268.06;5067794;28;20130;-58
2023/04/23 03:02:42;;;;;;;;;;;;;;;11.02;47.47;99291.28;5053242;28;20028;-55
2023/04/23 03:05:08;;;;;;;16.52;8.05;;;;;;;10.88;46.54;99265.00;5102488;28;19939;-59
2023/04/23 03:07:34;;;;;;;14.95;8.50;;;;;;;11.07;46.84;99297.13;5030850;28;20105;-57
2023/04/23 03:10:00;;;;;;;18.70;7.95;;;;;;;11.01;46.30;99273.97;5072494;28;20075;-56
2023/04/23 03:12:27;;;;;;;17.42;9.05;;;;;;;11.25;46.54;99298.94;5067666;28;20106;-59
2023/04/23 03:14:53;;;;;;;20.08;9.23;;;;;;;11.22;46.68;99303.44;5068628;28;20041;-59
2023/04/23 03:17:19;;;;;;;17.67;9.43;;;;;;;11.30;46.23;99307.41;5084952;28;20044;-57
2023/04/23 03:19:46;;;;;;;21.40;10.13;;;;;;;11.30;46.24;99307.41;5083766;28;20056;-56
2023/04/23 03:22:12;;;;;;;19.95;9.35;;;;;;;11.32;45.86;99302.97;5084365;28;20055;-57
2023/04/23 03:24:38;;;;;;;17.20;8.55;;;;;;;11.32;46.29;99310.78;5068707;28;20503;-58
2023/04/23 03:27:04;;;;;;;18.27;8.70;;;;;;;11.34;45.79;99315.91;5083515;28;20045;-59
2023/04/23 03:29:31;;;;;;;18.63;8.95;;;;;;;11.35;45.13;99313.25;5050842;28;20036;-59
2023/04/23 03:31:57;;;;;;;19.42;9.20;;;;;;;11.22;45.72;99286.06;5101299;28;20043;-60
2023/04/23 03:34:23;;;;;;;27.83;10.65;;;;;;;11.63;45.51;99323.28;5036822;28;20424;-62
2023/04/23 03:36:50;;;;;;;24.55;9.77;;;;;;;11.53;45.06;99290.75;5060840;28;20142;-57
2023/04/23 03:39:16;;;;;;;19.42;9.93;;;;;;;11.44;44.97;99286.81;5068381;28;20040;-57
2023/04/23 03:41:52;;;;;;;23.25;9.07;;;;;;;11.60;45.10;99325.19;5100139;28;20047;-59
2023/04/23 03:44:21;;;;;;;15.95;8.00;;;;;;;11.60;45.38;99328.63;5067204;28;20061;-54
2023/04/23 03:46:48;;;;;;;17.05;8.68;;;;;;;11.59;45.36;99320.88;5068131;28;20071;-57
2023/04/23 03:49:16;;;;;;;21.40;9.85;;;;;;;11.62;45.38;99333.78;5068026;28;20040;-59
2023/04/23 03:51:43;;;;;;;16.02;8.77;;;;;;;11.64;45.13;99324.13;5071236;28;20052;-55
2023/04/23 03:54:09;;;;;;;24.65;10.25;;;;;;;11.60;45.09;99309.56;5043052;28;20127;-58
2023/04/23 03:56:39;;;;;;;19.33;9.95;;;;;;;11.77;45.16;99333.13;5067228;28;20044;-60
2023/04/23 03:59:16;;;;;;;18.17;10.05;;;;;;;11.89;44.68;99338.63;5067839;28;20048;-60
2023/04/23 04:01:44;;;;;;;23.52;9.50;;;;;;;12.08;44.84;99346.47;5076375;28;20056;-60
2023/04/23 04:04:10;;;;;;;19.92;9.45;;;;;;;12.19;44.57;99341.63;5083508;28;20617;-58
2023/04/23 04:06:36;;;;;;;18.52;7.93;;;;;;;12.36;44.31;99339.94;5100290;28;20072;-58
2023/04/23 04:09:02;;;;;;;16.23;8.48;;;;;;;12.48;44.08;99334.16;5068905;28;20047;-56
2023/04/23 04:11:28;;;;;;;15.43;7.40;;;;;;;12.43;43.39;99334.38;5067408;28;20037;-60
2023/04/23 04:13:54;;;;;;;13.32;7.85;;;;;;;12.41;43.36;99328.38;5050283;28;20063;-59
2023/04/23 04:16:20;;;;;;;20.20;8.15;;;;;;;12.71;43.22;99355.63;5068645;28;20043;-58
2023/04/23 04:18:46;;;;;;;16.40;8.35;;;;;;;12.83;43.46;99342.88;5051649;28;20064;-59
2023/04/23 04:21:12;;;;;;;14.27;6.88;;;;;;;12.83;42.97;99345.50;5063912;28;20036;-60
2023/04/23 04:23:38;;;;;;;13.45;7.28;;;;;;;12.82;42.43;99342.06;5065509;28;20052;-59
2023/04/23 04:26:06;;;;;;;12.82;7.15;;;;;;;12.79;42.64;99321.34;5067601;28;20055;-57
2023/04/23 04:28:35;;;;;;;13.70;7.05;;;;;;;13.15;42.18;99353.47;5067259;28;20044;-56
2023/04/23 04:31:01;;;;;;;13.30;6.90;;;;;;;13.21;41.83;99354.09;5067625;28;20074;-58
2023/04/23 04:33:28;;;;;;;12.70;6.95;;;;;;;13.21;41.91;99359.31;5066809;28;20055;-59
2023/04/23 04:35:56;;;;;;;13.68;7.40;;;;;;;13.38;41.95;99365.38;5068270;28;20431;-61
2023/04/23 04:38:22;;;;;;;14.32;7.95;;;;;;;13.51;41.66;99365.56;5083562;28;20048;-55
2023/04/23 04:40:49;;;;;;;11.05;6.63;;;;;;;13.54;41.29;99345.38;5066171;28;20044;-59
2023/04/23 04:43:16;;;;;;;14.25;6.63;;;;;;;13.53;41.28;99317.56;5067159;28;20044;-60
2023/04/23 04:45:43;;;;;;;11.85;5.93;;;;;;;13.88;40.80;99364.50;5087436;28;20416;-59
2023/04/23 04:48:10;;;;;;;11.57;5.00;;;;;;;13.78;40.53;99368.53;5102752;28;21646;-59
2023/04/23 04:50:36;;;;;;;8.98;5.68;;;;;;;13.72;40.57;99374.06;5070047;28;20067;-59
2023/04/23 04:53:02;;;;;;;13.57;6.13;;;;;;;13.65;40.25;99341.38;5085625;28;20196;-60
2023/04/23 04:55:29;;;;;;;9.07;5.30;;;;;;;13.87;40.18;99355.00;5087930;28;20112;-56
2023/04/23 04:57:55;;;;;;;11.43;5.70;;;;;;;13.94;39.87;99361.56;5037055;28;20047;-60
2023/04/23 05:00:23;;;;;;;10.15;5.70;;;;;;;14.03;39.93;99381.97;5088291;28;20051;-58
2023/04/23 05:02:49;;;;;;;15.57;6.18;;;;;;;13.94;39.66;99366.81;5086237;28;20574;-60
2023/04/23 05:05:16;;;;;;;9.43;5.65;;;;;;;14.14;39.56;99370.94;5069602;28;20047;-59
2023/04/23 05:07:42;;;;;;;8.82;5.07;;;;;;;14.20;39.18;99362.78;5069623;28;20042;-61
2023/04/23 05:10:08;;;;;;;13.48;5.28;;;;;;;14.34;38.91;99389.06;5083786;28;20041;-61
2023/04/23 05:12:34;;;;;;;9.18;6.05;;;;;;;14.53;38.74;99394.13;5055680;28;20043;-59
2023/04/23 05:15:00;;;;;;;10.38;5.32;;;;;;;14.72;38.55;99385.19;5103400;28;20051;-57
2023/04/23 05:17:26;;;;;;;12.95;5.60;;;;;;;14.97;37.96;99391.66;5087931;28;20039;-60
2023/04/23 05:19:52;;;;;;;11.88;5.68;;;;;;;15.24;37.65;99393.53;5101537;28;20050;-59
2023/04/23 05:22:18;;;;;;;13.38;5.82;;;;;;;15.25;37.36;99379.50;5087088;28;20032;-59
2023/04/23 05:24:45;;;;;;;11.88;5.72;;;;;;;15.41;37.14;99392.53;5069349;28;20127;-58
2023/04/23 05:27:11;;;;;;;11.38;6.15;;;;;;;15.58;36.92;99402.91;5084602;28;20157;-60
2023/04/23 05:29:37;;;;;;;12.05;5.97;;;;;;;15.60;36.73;99405.44;5103185;28;20055;-62
2023/04/23 05:32:03;;;;;;;7.78;5.53;;;;;;;15.68;36.92;99403.22;5086435;28;20044;-60
2023/04/23 05:34:29;;;;;;;15.05;6.32;;;;;;;15.81;36.45;99369.22;5069124;28;20185;-59
2023/04/23 05:36:54;;;;;;;16.52;6.75;;;;;;;16.11;36.28;99401.47;5102876;28;20040;-60
2023/04/23 05:39:21;;;;;;;11.50;6.00;;;;;;;16.09;36.20;99404.16;5069269;28;20047;-59
2023/04/23 05:41:47;;;;;;;12.93;6.25;;;;;;;15.88;35.87;99368.78;5087299;28;20032;-64
2023/04/23 05:44:13;;;;;;;11.07;5.75;;;;;;;16.25;35.68;99405.84;5087853;28;20060;-61
2023/04/23 05:46:38;;;;;;;9.93;6.22;;;;;;;16.39;35.22;99406.66;5086612;28;20051;-59
2023/04/23 05:49:05;;;;;;;10.05;5.75;;;;;;;16.64;34.88;99402.56;5088088;28;20067;-59
2023/04/23 05:51:31;;;;;;;10.57;5.90;;;;;;;16.94;34.68;99405.84;5077925;28;20048;-59
2023/04/23 05:53:57;;;;;;;13.07;6.05;;;;;;;17.00;34.19;99405.44;5077624;28;20031;-62
2023/04/23 05:56:23;;;;;;;10.30;5.97;;;;;;;16.91;34.42;99403.38;5078144;28;20423;-61
2023/04/23 05:58:48;;;;;;;13.00;5.88;;;;;;;17.15;34.10;99408.84;5078540;28;20094;-61
2023/04/23 06:01:14;;;;;;;14.38;6.30;;;;;;;17.41;33.64;99413.22;5076438;28;20048;-58
2023/04/23 06:03:44;;;;;;;12.93;6.93;;;;;;;17.62;33.61;99409.19;5077113;28;20106;-60
2023/04/23 06:06:11;;;;;;;18.70;8.75;;;;;;;17.76;33.62;99403.81;5045521;28;20082;-61
2023/04/23 06:08:38;;;;;;;18.27;7.93;;;;;;;18.06;33.27;99405.28;5072179;28;20201;-60
2023/04/23 06:11:05;;;;;;;13.43;6.80;;;;;;;18.26;32.88;99407.38;5087014;28;20499;-59
2023/04/23 06:13:31;;;;;;;14.68;7.63;;;;;;;18.48;32.46;99420.69;5068702;28;20057;-58
2023/04/23 06:15:57;;;;;;;12.15;7.28;;;;;;;18.35;32.44;99413.78;5068926;28;20264;-57
2023/04/23 06:18:23;;;;;;;13.40;7.07;;;;;;;18.47;32.23;99424.31;5084675;28;20043;-61
2023/04/23 06:20:50;;;;;;;16.05;7.57;;;;;;;18.30;31.96;99410.63;5098037;28;20126;-62
2023/04/23 06:23:16;;;;;;;15.75;7.28;;;;;;;18.29;31.97;99430.84;5086620;28;20040;-60
2023/04/23 06:25:42;;;;;;;13.15;6.80;;;;;;;18.57;31.70;99425.38;5086079;28;20047;-59
2023/04/23 06:28:08;;;;;;;11.82;6.75;;;;;;;18.79;31.47;99398.31;5047445;28;20060;-61
2023/04/23 06:30:47;;;;;;;12.20;7.57;;;;;;;18.68;31.43;99413.22;5099693;28;20044;-59
2023/04/23 06:33:13;;;;;;;15.43;7.22;;;;;;;18.81;31.35;99424.53;5104278;28;20347;-60
2023/04/23 06:35:39;;;;;;;18.17;7.05;;;;;;;18.87;31.07;99424.09;5054597;28;20131;-62
2023/04/23 06:38:05;;;;;;;12.50;7.82;;;;;;;18.87;31.05;99427.56;5057599;28;20543;-61
2023/04/23 06:40:32;;;;;;;13.65;7.32;;;;;;;18.73;31.04;99409.31;5111312;27;20054;-60
2023/04/23 06:42:58;;;;;;;13.07;7.50;;;;;;;18.72;31.01;99414.66;5080545;28;20040;-60
2023/04/23 06:45:59;;;;;;;12.40;7.22;;;;;;;18.87;30.89;99437.28;5007560;28;20046;-61
2023/04/23 06:48:25;;;;;;;15.45;7.47;;;;;;;19.08;30.71;99442.78;5040912;28;20071;-57
2023/04/23 06:50:51;;;;;;;10.73;6.63;;;;;;;19.14;30.59;99434.44;5090226;28;20044;-59
2023/04/23 06:53:17;;;;;;;13.82;6.63;;;;;;;18.98;30.64;99439.97;5099269;28;20040;-59
2023/04/23 06:55:43;;;;;;;11.50;6.20;;;;;;;19.03;30.50;99441.31;5060623;28;20071;-58
2023/04/23 06:58:10;;;;;;;10.82;6.68;;;;;;;18.89;30.36;99423.03;5078043;28;20080;-60
2023/04/23 07:00:36;;;;;;;11.60;6.05;;;;;;;19.29;30.10;99446.47;5082230;28;20036;-59
2023/04/23 07:03:02;;;;;;;14.68;6.40;;;;;;;19.50;29.67;99451.97;5063340;28;20396;-59
2023/04/23 07:05:28;;;;;;;10.38;5.65;;;;;;;19.81;29.04;99449.56;5099816;28;20074;-60
2023/04/23 07:07:54;;;;;;;12.82;6.22;;;;;;;20.61;28.15;99431.03;5098099;28;20075;-59
2023/04/23 07:10:20;;;;;;;8.05;5.60;;;;;;;22.43;26.23;99442.22;5079290;28;20536;-59
2023/04/23 07:12:47;;;;;;;10.90;6.35;;;;;;;23.24;25.37;99459.75;5080256;28;20093;-58
2023/04/23 07:15:13;;;;;;;9.70;5.55;;;;;;;22.82;25.58;99460.94;5064969;28;20031;-60
2023/04/23 07:17:39;;;;;;;8.48;5.22;;;;;;;23.63;24.69;99461.47;5080549;28;20079;-59
2023/04/23 07:20:07;;;;;;;12.05;4.93;;;;;;;24.07;24.34;99465.28;5071264;28;20507;-60
2023/04/23 07:22:33;;;;;;;8.50;5.40;;;;;;;23.47;24.55;99457.69;5083684;28;20070;-58
2023/04/23 07:25:00;;;;;;;12.05;5.88;;;;;;;23.80;24.31;99470.53;5104885;28;20459;-60
2023/04/23 07:27:26;;;;;;;8.77;5.68;;;;;;;23.94;24.13;99459.47;5082362;28;20471;-58
2023/04/23 07:29:52;;;;;;;11.43;5.53;;;;;;;24.93;23.31;99454.50;5101497;28;20039;-60
2023/04/23 07:32:18;;;;;;;8.32;5.32;;;;;;;26.77;21.78;99441.94;5066687;28;20397;-62
2023/04/23 07:34:44;;;;;;;6.07;4.07;;;;;;;29.36;19.86;99474.56;5086656;28;20039;-59
2023/04/23 07:37:10;;;;;;;11.65;4.32;;;;;;;29.71;18.82;99469.63;5095898;28;20055;-59
2023/04/23 07:39:36;;;;;;;7.40;4.43;;;;;;;29.74;18.61;99463.88;5061546;28;20078;-60
2023/04/23 07:42:02;;;;;;;10.82;4.43;;;;;;;31.19;17.93;99468.72;5099883;27;20061;-59
2023/04/23 07:44:28;;;;;;;7.68;4.28;;;;;;;32.55;16.69;99451.25;5088090;28;20067;-58
2023/04/23 07:46:54;;;;;;;5.72;3.63;;;;;;;32.94;15.56;99461.38;5092012;28;20031;-58
2023/04/23 07:49:20;;;;;;;4.43;4.03;;;;;;;32.12;15.86;99455.13;5093099;28;20036;-59
2023/04/23 07:51:47;;;;;;;9.52;5.10;;;;;;;32.68;15.93;99469.34;5069828;28;20074;-60
2023/04/23 07:54:13;;;;;;;13.07;4.45;;;;;;;34.15;14.96;99441.44;5074453;28;20073;-58
2023/04/23 07:56:39;;;;;;;6.40;3.97;;;;;;;35.91;13.70;99467.84;5071390;28;20035;-59
2023/04/23 07:59:05;;;;;;;7.57;3.30;;;;;;;35.82;12.88;99463.78;5083438;28;20126;-59
2023/04/23 08:01:32;;;;;;;4.28;3.75;;;;;;;35.49;13.30;99455.03;5084707;28;20147;-59
2023/04/23 08:03:59;;;;;;;4.78;3.50;;;;;;;36.27;12.99;99463.63;5064365;28;20499;-59
2023/04/23 08:06:26;;;;;;;3.72;2.42;;;;;;;36.44;11.51;99445.69;5087915;28;20122;-59
2023/04/23 08:08:56;;;;;;;2.60;1.73;;;;;;;36.09;11.53;99454.38;5104704;27;20044;-58
2023/04/23 08:11:22;;;;;;;2.83;1.90;;;;;;;36.31;11.17;99456.69;5084052;28;20111;-59
2023/04/23 08:13:48;;;;;;;3.03;2.20;;;;;;;34.92;11.77;99453.28;5066512;28;20070;-61
2023/04/23 08:16:14;;;;;;;2.80;1.48;;;;;;;33.79;12.07;99433.78;5081359;28;20631;-59
2023/04/23 08:18:40;;;;;;;3.42;1.58;;;;;;;33.54;12.11;99457.00;5090129;28;20044;-60
2023/04/23 08:21:06;;;;;;;2.75;1.90;;;;;;;33.81;12.47;99455.97;5077907;28;20527;-59
2023/04/23 08:23:32;;;;;;;5.40;1.92;;;;;;;35.22;11.61;99462.53;5087054;28;20043;-58
2023/04/23 08:25:58;;;;;;;6.82;1.90;;;;;;;36.10;10.98;99455.19;5101503;27;20514;-60
2023/04/23 08:28:24;;;;;;;4.00;2.97;;;;;;;36.05;11.33;99458.59;5074530;28;20058;-58
2023/04/23 08:30:50;;;;;;;9.70;2.40;;;;;;;36.31;11.18;99452.09;5075182;28;20568;-59
2023/04/23 08:33:16;;;;;;;3.85;2.80;;;;;;;37.44;10.84;99441.50;5084856;28;20116;-60
2023/04/23 08:35:42;;;;;;;4.30;2.47;;;;;;;38.31;10.42;99463.47;5075596;28;20043;-60
2023/04/23 08:38:08;;;;;;;5.45;1.90;;;;;;;38.70;9.77;99464.59;5080823;28;20059;-60
2023/04/23 08:40:36;;;;;;;5.38;2.80;;;;;;;37.18;10.36;99436.47;5092906;28;20028;-58
2023/04/23 08:43:08;;;;;;;5.28;1.00;;;;;;;36.17;10.49;99461.41;5074220;28;20035;-59
2023/04/23 08:45:40;;;;;;;3.70;1.33;;;;;;;34.91;10.61;99444.38;5057886;28;20059;-60
2023/04/23 08:48:07;;;;;;;1.35;0.95;;;;;;;35.50;10.63;99440.47;5073970;28;20040;-59
2023/04/23 08:50:33;;;;;;;2.50;1.30;;;;;;;36.61;9.80;99440.50;5080965;28;20047;-59
2023/04/23 08:53:00;;;;;;;2.60;1.23;;;;;;;37.61;9.45;99437.09;5067805;28;20043;-59
2023/04/23 08:55:26;;;;;;;6.03;1.27;;;;;;;37.04;9.62;99434.97;5085901;28;20459;-62
2023/04/23 08:57:52;;;;;;;4.10;1.50;;;;;;;35.16;10.72;99436.31;5055452;28;20257;-59
2023/04/23 09:00:19;;;;;;;4.45;1.40;;;;;;;33.59;11.38;99436.47;5085691;28;20140;-58
2023/04/23 09:02:48;;;;;;;1.67;1.35;;;;;;;34.12;11.34;99428.38;5088599;28;20054;-60
2023/04/23 09:05:14;;;;;;;4.55;1.40;;;;;;;34.82;10.85;99426.72;5078830;28;20114;-60
2023/04/23 09:07:41;;;;;;;1.83;1.52;;;;;;;34.78;11.05;99429.03;5059416;28;20047;-59
2023/04/23 09:10:10;;;;;;;3.75;1.63;;;;;;;35.06;11.06;99430.56;5090630;28;20071;-58
2023/04/23 09:12:41;;;;;;;4.05;1.60;;;;;;;34.88;11.06;99430.44;5073562;28;20097;-58
2023/04/23 09:15:11;;;;;;;2.65;1.73;;;;;;;35.50;10.54;99418.84;5077242;28;20036;-59
2023/04/23 09:17:39;;;;;;;2.45;1.58;;;;;;;35.84;10.66;99429.22;5102427;28;20081;-58
2023/04/23 09:20:08;;;;;;;4.40;1.58;;;;;;;35.80;10.85;99419.06;5059456;28;20067;-54
2023/04/23 09:22:53;;;;;;;8.18;1.92;;;;;;;36.28;10.52;99427.34;5069127;28;20040;-59
2023/04/23 09:25:20;;;;;;;4.80;1.88;;;;;;;35.66;11.11;99413.75;5083004;28;20047;-54
2023/04/23 09:27:48;;;;;;;6.40;2.10;;;;;;;35.68;11.28;99425.19;5055587;28;20076;-58
2023/04/23 09:30:15;;;;;;;5.55;1.67;;;;;;;36.61;10.30;99408.00;5063945;28;20050;-55
2023/04/23 09:32:42;;;;;;;4.50;1.50;;;;;;;36.89;10.04;99422.66;5082410;28;20055;-60
2023/04/23 09:35:10;;;;;;;3.20;1.73;;;;;;;38.31;9.79;99420.84;5088344;28;20504;-60
2023/04/23 09:37:36;;;;;;;;;;;;;;;39.74;9.23;99417.03;5084396;28;20289;-60
2023/04/23 09:40:07;;;;;;;5.07;2.17;;;;;;;41.25;8.60;99414.66;5069967;28;19920;-57
2023/04/23 09:42:35;;;;;;;4.53;2.72;;;;;;;42.24;8.37;99423.13;5095809;28;20047;-59
2023/04/23 09:45:06;;;;;;;6.65;2.00;;;;;;;42.90;7.75;99407.03;5070434;28;20546;-57
2023/04/23 09:47:34;;;;;;;7.22;2.80;;;;;;;43.34;7.93;99413.66;5095166;28;20046;-58
2023/04/23 09:50:00;;;;;;;5.80;2.42;;;;;;;43.72;7.67;99403.28;5087573;28;20044;-60
2023/04/23 09:52:28;;;;;;;4.78;2.85;;;;;;;43.82;7.61;99395.84;5089510;28;20040;-59
2023/04/23 09:54:58;;;;;;;3.72;2.92;;;;;;;44.20;7.41;99405.38;5059665;28;20060;-61
2023/04/23 09:57:25;;;;;;;5.22;2.28;;;;;;;43.44;7.29;99397.25;5077860;28;20043;-61
2023/04/23 09:59:50;;;;;;;3.10;2.20;;;;;;;43.74;7.18;99415.59;5074640;28;20040;-61
2023/04/23 10:02:17;;;;;;;3.25;2.30;;;;;;;44.04;7.22;99401.03;5093853;28;20380;-61
2023/04/23 10:04:43;;;;;;;4.00;2.22;;;;;;;43.11;7.30;99406.00;5068312;28;20396;-63
2023/04/23 10:07:12;;;;;;;7.47;2.10;;;;;;;43.38;7.41;99403.00;5091137;28;20408;-60
2023/04/23 10:09:40;;;;;;;4.20;1.77;;;;;;;43.54;7.26;99388.25;5080248;28;20480;-61
2023/04/23 10:12:07;;;;;;;4.03;1.85;;;;;;;42.23;7.54;99394.97;5068924;28;20488;-61
2023/04/23 10:14:34;;;;;;;2.22;1.92;;;;;;;39.67;8.58;99365.50;5089954;28;20040;-62
2023/04/23 10:17:01;;;;;;;3.08;1.92;;;;;;;39.98;8.63;99358.63;5072562;28;20123;-62
2023/04/23 10:19:28;;;;;;;4.05;1.95;;;;;;;39.48;8.66;99390.50;5088738;28;20028;-57
2023/04/23 10:22:06;;;;;;;5.07;2.10;;;;;;;37.97;9.78;99372.78;5104339;28;20039;-56
2023/04/23 10:24:34;;;;;;;5.80;2.05;;;;;;;36.51;10.65;99387.69;5065002;28;20040;-54
2023/04/23 10:27:03;;;;;;;8.65;2.13;;;;;;;35.30;11.49;99378.44;5077698;28;20036;-64
2023/04/23 10:29:30;;;;;;;8.85;1.95;;;;;;;34.25;11.86;99374.38;5055077;28;20051;-67
2023/04/23 10:32:00;;;;;;;2.55;1.80;;;;;;;35.97;11.07;99379.53;5089273;28;20036;-71
2023/04/23 10:34:27;;;;;;;6.18;2.42;;;;;;;38.13;10.13;99375.63;5076474;28;20128;-68
2023/04/23 10:36:56;;;;;;;5.97;2.35;;;;;;;39.91;9.29;99377.03;5075041;28;20036;-68
2023/04/23 10:39:33;;;;;;;7.25;2.55;;;;;;;41.03;8.72;99385.56;5078448;28;20439;-67
2023/04/23 10:42:00;;;;;;;6.40;2.60;;;;;;;41.00;8.52;99383.31;5089452;28;20028;-64
2023/04/23 10:44:36;;;;;;;5.32;2.72;;;;;;;39.02;9.32;99365.19;5121583;27;20066;-66
2023/04/23 10:47:03;;;;;;;7.40;2.70;;;;;;;39.74;9.19;99348.97;5111132;28;20035;-66
2023/04/23 10:49:31;;;;;;;6.18;2.50;;;;;;;40.81;8.80;99373.88;5111016;28;20035;-66
2023/04/23 10:51:59;;;;;;;6.15;2.30;;;;;;;41.75;8.47;99382.38;5059128;28;20047;-66
2023/04/23 10:54:30;;;;;;;4.70;2.03;;;;;;;41.47;8.19;99387.34;5071734;28;20126;-67
2023/04/23 10:57:04;;;;;;;4.40;1.98;;;;;;;39.60;8.68;99381.19;5089506;28;20044;-66
2023/04/23 10:59:31;;;;;;;4.45;1.90;;;;;;;40.45;8.76;99375.34;5071900;28;20047;-66
2023/04/23 11:01:58;;;;;;;;;;;;;;;41.41;8.30;99379.06;5071847;28;20036;-66
2023/04/23 11:04:27;;;;;;;7.07;2.25;;;;;;;42.14;8.52;99382.06;5089369;28;19923;-68
2023/04/23 11:07:07;;;;;;;1.95;1.85;;;;;;;40.57;8.16;99373.28;5087680;28;20064;-67
2023/04/23 11:09:38;;;;;;;4.70;2.30;;;;;;;40.02;8.90;99378.84;5088839;28;20028;-67
2023/04/23 11:12:12;;;;;;;3.47;1.95;;;;;;;39.95;8.71;99364.56;5071843;28;20052;-67
2023/04/23 11:14:44;;;;;;;4.18;1.70;;;;;;;37.55;9.63;99343.06;5060423;28;20492;-68
2023/04/23 11:17:12;;;;;;;5.18;1.95;;;;;;;37.15;10.01;99353.72;5084407;28;20533;-67
2023/04/23 11:19:39;;;;;;;6.93;2.03;;;;;;;38.32;9.51;99359.16;5088783;28;20032;-67
2023/04/23 11:22:07;;;;;;;;;;;;;;;39.68;8.96;99371.75;5071116;28;20039;-69
2023/04/23 11:24:41;;;;;;;10.30;3.80;;;;;;;39.33;9.21;99359.25;5064414;28;19917;-66
2023/04/23 11:27:09;;;;;;;7.97;2.50;;;;;;;39.75;8.93;99358.78;5051960;28;20113;-66
2023/04/23 11:29:37;;;;;;;5.00;1.95;;;;;;;39.80;8.84;99357.00;5084504;28;20073;-64